Terminal Aerodrome Forecast
Issued by NWS

Home | Current Version | Previous Version | Text Only | Print | Product List | Glossary On
Versions: 1 2 3 4 5 6 7 8 9 10 11 12
000
FTUS45 KRIW 280500
TAFCPR
TAF
KCPR 280525Z 2806/2906 23018G28KT P6SM SCT060 BKN130
     FM281000 23018G28KT P6SM SCT050 BKN100
     FM281900 23024G30KT P6SM VCSH SCT040 BKN080
     FM282200 33011KT 5SM -SN OVC030
     FM290200 01012G20KT 2SM -SN BLSN OVC020=

USA.gov is the U.S. government's official web portal to all federal, state and local government web resources and services.